Time;durP1;ratioP1;P1;durP2;ratioP2;P2;SDS_P1;SDS_P2;PMS_P1;PMS_P2;Temp;Humidity;BMP_temperature;BMP_pressure;BME280_temperature;BME280_humidity;BME280_pressure;Samples;Min_cycle;Max_cycle;Signal;HPM_P1;HPM_P2
2021/12/31 00:04:46;;;;;;;118.83;38.23;;;5.30;99.90;;;3.26;100.00;100549.81;10403773;27;97735;-79
2021/12/31 00:09:49;;;;;;;97.03;31.37;;;5.30;99.90;;;3.25;100.00;100569.16;10377614;28;96865;-79
2021/12/31 00:14:52;;;;;;;109.77;36.67;;;5.30;99.90;;;3.23;100.00;100563.16;10381493;28;97259;-79
2021/12/31 00:20:03;;;;;;;97.30;36.60;;;5.30;99.90;;;3.23;100.00;100563.16;10381666;28;96744;-79
2021/12/31 00:25:07;;;;;;;61.22;23.65;;;5.30;99.90;;;3.21;100.00;100571.16;10388041;28;97653;-79
2021/12/31 00:30:10;;;;;;;96.90;26.20;;;5.30;99.90;;;3.21;100.00;100568.53;10389335;28;96604;-79
2021/12/31 00:35:14;;;;;;;106.47;27.07;;;5.20;99.90;;;3.20;100.00;100561.59;10394084;28;97572;-78
2021/12/31 00:40:18;;;;;;;143.17;28.50;;;5.30;99.90;;;3.19;100.00;100569.59;10382405;28;100121;-79
2021/12/31 00:45:24;;;;;;;168.70;29.63;;;5.30;99.90;;;3.18;100.00;100570.56;10386243;28;96940;-79
2021/12/31 00:50:27;;;;;;;125.87;29.10;;;5.20;99.90;;;3.16;100.00;100575.06;10393033;28;96643;-79
2021/12/31 00:55:31;;;;;;;130.10;27.43;;;5.30;99.90;;;3.18;100.00;100575.81;10388126;28;97551;-79
2021/12/31 01:00:34;;;;;;;151.77;27.20;;;5.30;99.90;;;3.18;100.00;100575.81;10387525;27;97076;-79
2021/12/31 01:05:38;;;;;;;137.33;28.30;;;5.30;99.90;;;3.16;100.00;100580.31;10402161;28;98569;-78
2021/12/31 01:10:41;;;;;;;190.90;28.77;;;5.20;99.90;;;3.16;100.00;100585.56;10394548;28;98881;-79
2021/12/31 01:15:46;;;;;;;147.23;25.67;;;5.20;99.90;;;3.14;100.00;100579.59;10382226;28;96676;-79
2021/12/31 01:20:49;;;;;;;135.73;26.90;;;5.20;99.90;;;3.15;100.00;100589.16;10389697;28;96955;-79
2021/12/31 01:25:52;;;;;;;161.40;29.53;;;5.20;99.90;;;3.14;100.00;100585.69;10383089;28;97227;-79
2021/12/31 01:30:55;;;;;;;155.03;27.37;;;5.20;99.90;;;3.14;100.00;100588.31;10383156;28;98312;-79
2021/12/31 01:35:59;;;;;;;175.27;26.63;;;5.20;99.90;;;3.15;100.00;100573.38;10386380;28;98469;-79
2021/12/31 01:41:02;;;;;;;187.83;27.90;;;5.20;99.90;;;3.14;100.00;100569.09;10381581;28;96664;-79
2021/12/31 01:46:11;;;;;;;204.07;28.10;;;5.20;99.90;;;3.13;100.00;100567.41;10376122;28;98123;-79
2021/12/31 01:51:15;;;;;;;156.23;29.10;;;5.20;99.90;;;3.12;100.00;100568.34;10378318;28;96826;-79
2021/12/31 01:56:25;;;;;;;266.77;34.57;;;5.20;99.90;;;3.10;100.00;100560.59;10382645;28;98618;-79
2021/12/31 02:01:28;;;;;;;157.53;31.07;;;5.20;99.90;;;3.11;100.00;100566.66;10393739;27;97727;-79
2021/12/31 02:06:34;;;;;;;167.67;30.00;;;5.20;99.90;;;3.09;100.00;100568.59;10396913;28;97691;-79
2021/12/31 02:11:36;;;;;;;221.30;32.43;;;5.20;99.90;;;3.08;100.00;100575.63;10372839;28;97609;-78
2021/12/31 02:16:39;;;;;;;204.80;27.60;;;5.20;99.90;;;3.10;100.00;100570.25;10394451;28;96829;-78
2021/12/31 02:21:44;;;;;;;205.10;31.27;;;5.20;99.90;;;3.10;100.00;100563.22;10386828;28;97109;-79
2021/12/31 02:26:49;;;;;;;177.50;28.30;;;5.20;99.90;;;3.12;100.00;100557.84;10385007;28;98064;-79
2021/12/31 02:31:53;;;;;;;146.43;30.00;;;5.20;99.90;;;3.11;100.00;100548.28;10377120;28;97686;-79
2021/12/31 02:36:56;;;;;;;182.20;29.23;;;5.20;99.90;;;3.10;100.00;100555.34;10388738;28;98422;-79
2021/12/31 02:41:59;;;;;;;193.00;28.30;;;5.20;99.90;;;3.08;100.00;100546.75;10382910;28;98914;-79
2021/12/31 02:47:05;;;;;;;209.93;28.33;;;5.20;99.90;;;3.06;100.00;100558.28;10372645;28;97520;-79
2021/12/31 02:52:16;;;;;;;221.33;30.10;;;5.10;99.90;;;3.01;100.00;100561.25;10364824;28;96817;-79
2021/12/31 02:57:20;;;;;;;222.63;29.33;;;5.10;99.90;;;2.96;100.00;100547.63;10382397;28;96633;-79
2021/12/31 03:02:25;;;;;;;207.57;28.67;;;5.10;99.90;;;2.91;100.00;100547.94;10386295;28;98419;-78
2021/12/31 03:07:29;;;;;;;213.07;29.73;;;5.00;99.90;;;2.87;100.00;100554.34;10384077;28;97062;-78
2021/12/31 03:12:32;;;;;;;199.63;29.33;;;5.00;99.90;;;2.84;100.00;100567.72;10381469;28;98080;-78
2021/12/31 03:17:36;;;;;;;144.97;26.77;;;5.00;99.90;;;2.79;100.00;100575.06;10388236;28;98634;-78
2021/12/31 03:22:41;;;;;;;110.80;29.57;;;4.90;99.90;;;2.75;100.00;100565.72;10388285;28;97273;-78
2021/12/31 03:27:43;;;;;;;146.47;34.10;;;4.80;99.90;;;2.71;100.00;100556.41;10365334;28;97825;-78
2021/12/31 03:32:46;;;;;;;118.93;28.23;;;4.80;99.90;;;2.67;100.00;100561.03;10391927;28;96960;-77
2021/12/31 03:37:49;;;;;;;86.50;25.80;;;4.70;99.90;;;2.62;100.00;100546.56;10373951;28;97482;-77
2021/12/31 03:42:52;;;;;;;74.07;23.33;;;4.70;99.90;;;2.59;100.00;100544.16;10338234;28;97794;-79
2021/12/31 03:47:55;;;;;;;106.23;28.00;;;4.70;99.90;;;2.56;100.00;100547.81;10330979;28;96688;-77
2021/12/31 03:52:58;;;;;;;92.30;25.00;;;4.70;99.90;;;2.54;100.00;100541.88;10361143;28;96681;-77
2021/12/31 03:58:02;;;;;;;121.80;28.33;;;4.60;99.90;;;2.53;100.00;100534.09;10331637;28;96756;-77
2021/12/31 04:03:10;;;;;;;101.40;26.67;;;4.60;99.90;;;2.52;100.00;100532.41;10340277;28;96946;-77
2021/12/31 04:08:13;;;;;;;154.07;36.23;;;4.60;99.90;;;2.50;100.00;100524.66;10330703;28;97303;-77
2021/12/31 04:13:16;;;;;;;159.00;32.17;;;4.60;99.90;;;2.50;100.00;100516.78;10346981;28;96831;-77
2021/12/31 04:18:19;;;;;;;165.70;30.97;;;4.60;99.90;;;2.50;100.00;100514.16;10346481;28;97462;-77
2021/12/31 04:23:27;;;;;;;146.33;32.03;;;4.60;99.90;;;2.50;100.00;100524.66;10365910;28;96766;-77
2021/12/31 04:28:30;;;;;;;116.70;29.40;;;4.60;99.90;;;2.48;100.00;100512.59;10336415;28;97006;-77
2021/12/31 04:33:33;;;;;;;120.83;30.70;;;4.60;99.90;;;2.45;100.00;100504.94;10329186;28;97877;-78
2021/12/31 04:38:35;;;;;;;136.43;28.70;;;4.50;99.90;;;2.39;100.00;100501.78;10360006;28;97150;-78
2021/12/31 04:43:39;;;;;;;144.67;29.33;;;4.50;99.90;;;2.36;100.00;100506.44;10383005;27;97012;-78
2021/12/31 04:48:42;;;;;;;151.83;29.83;;;4.50;99.90;;;2.35;100.00;100523.13;10373665;28;98171;-78
2021/12/31 04:53:45;;;;;;;223.53;30.50;;;4.40;99.90;;;2.35;100.00;100531.81;10372844;28;96696;-78
2021/12/31 04:58:48;;;;;;;119.47;28.67;;;4.40;99.90;;;2.34;100.00;100517.03;10387599;28;97046;-78
2021/12/31 05:03:51;;;;;;;133.93;28.37;;;4.40;99.90;;;2.32;100.00;100526.78;10379637;28;97214;-78
2021/12/31 05:08:54;;;;;;;173.20;31.90;;;4.40;99.90;;;2.34;100.00;100524.91;10391572;28;96718;-78
2021/12/31 05:13:56;;;;;;;181.90;33.53;;;4.40;99.90;;;2.36;100.00;100522.16;10387365;28;96891;-78
2021/12/31 05:18:59;;;;;;;103.87;27.67;;;4.40;99.90;;;2.35;100.00;100526.59;10374376;28;97905;-78
2021/12/31 05:24:02;;;;;;;128.83;35.20;;;4.40;99.90;;;2.31;100.00;100522.50;10384111;28;96957;-78
2021/12/31 05:29:05;;;;;;;113.27;37.03;;;4.40;99.90;;;2.26;100.00;100529.84;10375089;27;96767;-78
2021/12/31 05:34:08;;;;;;;85.60;35.40;;;4.40;99.90;;;2.21;100.00;100526.69;10387918;28;97918;-78
2021/12/31 05:39:13;;;;;;;85.90;33.00;;;4.30;99.90;;;2.15;100.00;100527.09;10384077;28;98283;-78
2021/12/31 05:44:17;;;;;;;59.70;25.97;;;4.30;99.90;;;2.11;100.00;100517.81;10374039;28;97442;-78
2021/12/31 05:49:20;;;;;;;73.70;28.63;;;4.20;99.90;;;2.14;100.00;100528.06;10364291;28;98032;-78
2021/12/31 05:54:23;;;;;;;66.40;27.53;;;4.20;99.90;;;2.15;100.00;100535.81;10359733;28;97126;-79
2021/12/31 05:59:27;;;;;;;75.20;28.73;;;4.20;99.90;;;2.17;100.00;100535.72;10357484;28;97035;-78
2021/12/31 06:04:30;;;;;;;79.40;28.00;;;4.20;99.90;;;2.21;100.00;100533.72;10370674;28;99580;-78
2021/12/31 06:09:34;;;;;;;69.90;28.10;;;4.30;99.90;;;2.26;100.00;100536.88;10377444;27;97802;-78
2021/12/31 06:14:37;;;;;;;82.67;29.47;;;4.30;99.90;;;2.25;100.00;100541.28;10368200;28;96937;-78
2021/12/31 06:19:40;;;;;;;100.10;39.73;;;4.30;99.90;;;2.26;100.00;100532.44;10367085;28;98118;-77
2021/12/31 06:24:45;;;;;;;87.67;34.83;;;4.30;99.90;;;2.29;100.00;100540.13;10371299;28;97309;-79
2021/12/31 06:29:48;;;;;;;79.30;33.03;;;4.30;99.90;;;2.42;100.00;100535.69;10388054;28;96818;-79
2021/12/31 06:34:51;;;;;;;91.47;37.30;;;4.40;99.90;;;2.65;100.00;100541.94;10370680;28;98001;-79
2021/12/31 06:39:54;;;;;;;93.27;38.00;;;4.60;99.90;;;2.82;100.00;100540.75;10376303;27;96813;-80
2021/12/31 06:44:58;;;;;;;117.77;48.63;;;4.70;99.90;;;2.95;100.00;100546.78;10380269;28;97206;-80
2021/12/31 06:50:01;;;;;;;73.23;28.37;;;4.90;99.90;;;3.06;100.00;100550.41;10374454;28;98038;-79
2021/12/31 06:55:07;;;;;;;95.17;41.20;;;5.00;99.90;;;3.18;100.00;100560.88;10377403;28;97273;-79
2021/12/31 07:00:10;;;;;;;83.10;31.07;;;5.10;99.90;;;3.28;100.00;100558.41;10349787;28;98130;-79
2021/12/31 07:05:13;;;;;;;91.23;29.97;;;5.20;99.90;;;3.36;100.00;100563.97;10360560;28;97652;-79
2021/12/31 07:10:16;;;;;;;65.27;28.13;;;5.30;99.90;;;3.47;100.00;100557.88;10379579;28;97202;-79
2021/12/31 07:15:19;;;;;;;114.23;52.20;;;5.30;99.90;;;3.60;100.00;100569.19;10357407;28;96939;-79
2021/12/31 07:20:22;;;;;;;97.20;43.33;;;5.40;99.90;;;3.69;100.00;100573.75;10389819;28;96918;-80
2021/12/31 07:25:25;;;;;;;60.37;29.33;;;5.50;99.90;;;3.98;100.00;100582.06;10375355;28;97744;-79
2021/12/31 07:30:28;;;;;;;59.77;26.43;;;5.70;99.90;;;4.55;100.00;100589.06;10368159;28;97913;-79
2021/12/31 07:35:31;;;;;;;48.50;20.47;;;6.20;99.90;;;5.08;100.00;100580.50;10368384;28;96766;-79
2021/12/31 07:40:39;;;;;;;51.03;23.50;;;6.70;99.90;;;5.46;100.00;100585.31;10377238;27;97286;-79
2021/12/31 07:45:42;;;;;;;41.13;20.10;;;7.10;99.90;;;5.75;100.00;100585.53;10380506;28;98827;-80
2021/12/31 07:50:46;;;;;;;42.40;22.43;;;7.40;99.90;;;5.94;100.00;100587.53;10393702;28;97234;-79
2021/12/31 07:55:50;;;;;;;48.97;25.57;;;7.60;99.90;;;6.07;100.00;100601.38;10364085;28;96706;-80
2021/12/31 08:00:54;;;;;;;43.17;19.33;;;7.80;99.90;;;6.36;100.00;100588.34;10396471;28;97124;-79
2021/12/31 08:05:57;;;;;;;35.80;18.90;;;8.00;99.90;;;6.53;100.00;100586.88;10398854;28;96600;-80
2021/12/31 08:11:00;;;;;;;53.27;25.73;;;8.20;99.90;;;6.61;100.00;100587.06;10401244;28;96844;-80
2021/12/31 08:16:03;;;;;;;75.87;35.50;;;8.30;99.90;;;6.63;100.00;100582.47;10397502;27;98566;-79
2021/12/31 08:21:07;;;;;;;64.70;31.50;;;8.40;99.90;;;6.64;100.00;100584.13;10394770;28;97081;-78
2021/12/31 08:26:10;;;;;;;75.03;38.60;;;8.40;99.90;;;6.57;100.00;100588.28;10379955;28;97294;-79
2021/12/31 08:31:13;;;;;;;79.57;43.97;;;8.40;99.90;;;6.57;100.00;100587.44;10360246;28;97623;-79
2021/12/31 08:36:16;;;;;;;59.63;34.47;;;8.40;99.90;;;6.82;100.00;100591.44;10370544;28;97380;-79
2021/12/31 08:41:19;;;;;;;72.47;33.70;;;8.50;99.90;;;7.04;100.00;100577.19;10392562;28;96658;-79
2021/12/31 08:46:43;;;;;;;91.20;43.97;;;8.70;99.90;;;7.19;100.00;100589.84;10372876;27;98037;-80
2021/12/31 08:51:46;;;;;;;95.17;43.23;;;8.90;99.90;;;7.33;100.00;100595.75;10368515;28;97001;-79
2021/12/31 08:56:49;;;;;;;110.53;49.57;;;9.00;99.90;;;7.35;100.00;100607.00;10372637;28;96908;-79
2021/12/31 09:01:58;;;;;;;32.43;12.50;;;9.10;99.90;;;7.87;100.00;100594.38;10370313;28;97144;-82
2021/12/31 09:07:01;;;;;;;60.37;23.60;;;9.50;99.90;;;8.50;100.00;100589.38;10359915;27;98165;-78
2021/12/31 09:12:04;;;;;;;13.20;6.87;;;10.10;99.90;;;8.96;100.00;100587.63;10378249;28;97136;-78
2021/12/31 09:17:08;;;;;;;54.67;34.30;;;10.50;99.90;;;9.21;100.00;100588.75;10356963;27;98273;-78
2021/12/31 09:22:11;;;;;;;24.60;13.73;;;10.80;99.90;;;9.46;100.00;100589.81;10384121;27;97174;-78
2021/12/31 09:27:14;;;;;;;10.97;5.77;;;11.00;99.90;;;9.72;100.00;100598.69;10385616;28;97092;-78
2021/12/31 09:32:17;;;;;;;16.57;6.33;;;11.30;99.90;;;10.07;100.00;100591.66;10363232;28;96715;-78
2021/12/31 09:37:20;;;;;;;4.83;2.43;;;11.60;99.90;;;10.49;100.00;100583.00;10375799;27;97915;-78
2021/12/31 09:42:24;;;;;;;8.63;3.73;;;12.00;99.90;;;10.73;100.00;100575.13;10387251;28;97329;-78
2021/12/31 09:47:27;;;;;;;9.83;5.20;;;12.30;99.90;;;10.98;100.00;100576.09;10388980;28;97019;-79
2021/12/31 09:52:32;;;;;;;5.30;2.83;;;12.60;99.90;;;11.09;98.41;100548.34;10380283;28;98360;-78
2021/12/31 09:57:35;;;;;;;1.83;1.20;;;12.70;99.90;;;11.19;96.96;100551.69;10361796;28;96747;-78
2021/12/31 10:02:37;;;;;;;3.23;1.73;;;12.80;99.90;;;11.23;94.70;100543.22;10392459;28;96807;-77
2021/12/31 10:07:44;;;;;;;2.93;1.77;;;12.90;99.90;;;11.32;93.03;100541.41;10367641;28;97797;-77
2021/12/31 10:12:56;;;;;;;2.63;1.40;;;13.00;99.90;;;11.34;92.23;100538.59;10349797;28;97223;-77
2021/12/31 10:18:12;;;;;;;4.93;1.90;;;13.10;99.90;;;11.46;91.18;100535.44;10358011;28;96840;-78
2021/12/31 10:23:17;;;;;;;3.67;1.20;;;13.20;99.90;;;11.58;89.41;100527.13;10363737;28;96971;-80
2021/12/31 10:28:20;;;;;;;1.93;1.30;;;13.30;99.90;;;11.66;88.69;100506.66;10374342;28;97032;-78
2021/12/31 10:33:46;;;;;;;13.17;9.57;;;13.40;99.90;;;11.76;86.85;100511.81;10388943;27;97672;-78
2021/12/31 10:38:49;;;;;;;5.07;3.03;;;13.50;99.90;;;11.82;85.66;100507.69;10298491;28;1567564;-78
2021/12/31 10:43:59;;;;;;;3.00;1.13;;;13.60;99.90;;;11.87;84.17;100508.81;10366308;28;97184;-78
2021/12/31 10:49:09;;;;;;;2.25;0.90;;;13.60;99.90;;;11.96;82.08;100521.13;10378658;27;98488;-78
2021/12/31 10:54:44;;;;;;;1.20;0.70;;;13.70;99.90;;;12.14;80.90;100541.41;10393465;27;96575;-78
2021/12/31 10:59:48;;;;;;;7.63;3.93;;;13.90;99.90;;;12.59;80.26;100530.09;10369628;28;97756;-78
2021/12/31 11:04:51;;;;;;;2.60;1.33;;;14.20;99.90;;;12.64;78.65;100526.94;10366939;28;97867;-78
2021/12/31 11:10:00;;;;;;;2.42;1.50;;;14.30;99.90;;;12.66;78.29;100535.59;10389212;28;98582;-78
2021/12/31 11:15:05;;;;;;;2.58;1.40;;;14.30;99.90;;;12.70;77.87;100539.56;10365748;28;97546;-78
2021/12/31 11:20:11;;;;;;;2.30;1.45;;;14.40;99.90;;;12.72;76.81;100538.41;10360640;27;97407;-78
2021/12/31 11:25:17;;;;;;;20.23;9.45;;;14.50;99.90;;;12.71;77.54;100539.38;10352226;28;97919;-78
2021/12/31 11:30:48;;;;;;;15.67;7.20;;;14.50;99.90;;;12.63;77.83;100527.94;10380560;28;97736;-77
2021/12/31 11:35:51;;;;;;;11.65;6.05;;;14.50;99.90;;;12.55;77.94;100529.66;10377067;27;97800;-78
2021/12/31 11:41:13;;;;;;;10.50;7.77;;;14.40;99.90;;;12.43;78.01;100524.88;10388837;27;98795;-78
2021/12/31 11:46:22;;;;;;;10.13;6.20;;;14.30;99.90;;;12.28;78.44;100524.72;10378097;28;97942;-77
2021/12/31 11:51:34;;;;;;;8.37;5.20;;;14.20;99.90;;;12.16;78.29;100523.44;10373171;27;96897;-77
2021/12/31 11:56:49;;;;;;;17.23;10.10;;;14.10;99.90;;;12.03;78.92;100519.47;10369125;28;96733;-78
2021/12/31 12:02:06;;;;;;;19.87;12.00;;;13.90;99.90;;;11.91;80.02;100518.16;10368211;28;98839;-77
2021/12/31 12:07:46;;;;;;;8.10;4.53;;;13.80;99.90;;;11.85;79.92;100507.34;10373738;28;96754;-78
2021/12/31 12:12:53;;;;;;;5.73;3.73;;;13.70;99.90;;;11.76;80.20;100514.50;10378266;28;98441;-77
2021/12/31 12:18:01;;;;;;;10.63;5.63;;;13.60;99.90;;;11.66;80.45;100519.97;10383229;27;97091;-77
2021/12/31 12:23:17;;;;;;;9.47;5.03;;;13.60;99.90;;;11.60;81.01;100511.81;10384167;27;98071;-77
2021/12/31 12:28:21;;;;;;;46.93;24.10;;;13.50;99.90;;;11.53;81.18;100515.16;10359836;28;97372;-77
2021/12/31 12:33:25;;;;;;;30.77;14.27;;;13.40;99.90;;;11.49;81.77;100510.31;10373823;28;98640;-82
2021/12/31 12:38:34;;;;;;;9.47;5.93;;;13.40;99.90;;;11.48;81.94;100506.81;10364850;28;97457;-78
2021/12/31 12:43:48;;;;;;;33.20;14.20;;;13.30;99.90;;;11.51;82.10;100509.19;10390283;27;98847;-81
2021/12/31 12:48:52;;;;;;;39.60;17.80;;;13.30;99.90;;;11.47;82.30;100499.84;10363108;27;97084;-79
2021/12/31 12:53:56;;;;;;;45.27;20.03;;;13.30;99.90;;;11.46;82.15;100498.19;10383222;27;96952;-79
2021/12/31 12:59:01;;;;;;;32.80;13.93;;;13.30;99.90;;;11.47;82.52;100493.69;10371052;27;96631;-78
2021/12/31 13:04:06;;;;;;;10.57;7.87;;;13.30;99.90;;;11.48;82.42;100490.88;10375076;28;97307;-79
2021/12/31 13:09:18;;;;;;;12.03;7.33;;;13.30;99.90;;;11.46;82.46;100492.88;10386124;28;100022;-79
2021/12/31 13:14:33;;;;;;;35.80;13.43;;;13.30;99.90;;;11.42;82.48;100486.22;10368009;28;96873;-78
2021/12/31 13:19:39;;;;;;;26.43;12.27;;;13.20;99.90;;;11.39;83.00;100478.53;10354634;27;96781;-78
2021/12/31 13:24:53;;;;;;;167.30;66.47;;;13.20;99.90;;;11.34;83.34;100467.59;10363575;28;97178;-78
2021/12/31 13:30:11;;;;;;;67.07;33.83;;;13.20;99.90;;;11.34;83.40;100469.44;10371208;27;98711;-77
2021/12/31 13:35:14;;;;;;;12.67;7.53;;;13.20;99.90;;;11.31;83.71;100457.25;10373530;28;96675;-79
2021/12/31 13:40:20;;;;;;;17.10;7.87;;;13.20;99.90;;;11.32;83.67;100461.59;10364144;28;98367;-79
2021/12/31 13:45:25;;;;;;;7.23;4.83;;;13.20;99.90;;;11.38;83.52;100466.25;10385437;28;98096;-79
2021/12/31 13:50:31;;;;;;;11.67;7.47;;;13.20;99.90;;;11.36;83.73;100457.59;10359189;27;97450;-78
2021/12/31 13:55:35;;;;;;;16.47;10.57;;;13.20;99.90;;;11.36;83.55;100459.44;10395721;28;96623;-79
2021/12/31 14:00:40;;;;;;;12.57;8.13;;;13.20;99.90;;;11.33;83.66;100449.94;10377193;28;97475;-78
2021/12/31 14:05:51;;;;;;;7.93;4.60;;;13.20;99.90;;;11.28;84.17;100459.44;10375216;28;96797;-79
2021/12/31 14:10:54;;;;;;;9.67;5.67;;;13.10;99.90;;;11.27;84.14;100455.94;10357010;28;96710;-79
2021/12/31 14:15:58;;;;;;;6.20;4.17;;;13.10;99.90;;;11.28;84.09;100443.47;10378209;27;97642;-79
2021/12/31 14:21:01;;;;;;;4.73;3.20;;;13.10;99.90;;;11.26;84.01;100448.94;10396032;27;98377;-79
2021/12/31 14:26:05;;;;;;;5.93;3.53;;;13.10;99.90;;;11.17;83.96;100448.13;10366058;28;97565;-79
2021/12/31 14:31:08;;;;;;;5.67;3.20;;;13.10;99.90;;;11.09;84.30;100457.91;10386868;28;97734;-80
2021/12/31 14:36:14;;;;;;;5.40;3.00;;;13.00;99.90;;;10.97;84.97;100450.28;10361749;28;98310;-78
2021/12/31 14:41:22;;;;;;;4.97;3.50;;;12.90;99.90;;;10.94;85.25;100455.91;10374928;28;98446;-78
2021/12/31 14:46:26;;;;;;;5.67;3.40;;;12.80;99.90;;;10.84;85.59;100455.22;10379431;28;97378;-79
2021/12/31 14:51:31;;;;;;;5.30;3.63;;;12.80;99.90;;;10.69;85.91;100447.06;10335143;28;96598;-79
2021/12/31 14:56:37;;;;;;;7.17;3.60;;;12.70;99.90;;;10.56;86.42;100445.88;10389536;28;98396;-79
2021/12/31 15:01:42;;;;;;;6.77;4.17;;;12.60;99.90;;;10.42;87.13;100439.31;10353047;28;97408;-79
2021/12/31 15:06:45;;;;;;;5.80;4.27;;;12.40;99.90;;;10.33;87.75;100435.81;10371872;28;97053;-79
2021/12/31 15:11:48;;;;;;;9.23;5.10;;;12.30;99.90;;;10.24;88.06;100446.56;10362281;27;97683;-80
2021/12/31 15:16:52;;;;;;;8.40;5.07;;;12.20;99.90;;;10.13;88.77;100453.78;10355737;27;98611;-80
2021/12/31 15:21:55;;;;;;;11.00;6.77;;;12.10;99.90;;;9.98;88.95;100446.59;10383235;27;99121;-80
2021/12/31 15:27:00;;;;;;;17.13;10.10;;;12.00;99.90;;;9.76;89.36;100440.81;10370157;28;97563;-81
2021/12/31 15:32:04;;;;;;;18.50;11.63;;;11.80;99.90;;;9.51;89.35;100446.94;10363916;28;98536;-78
2021/12/31 15:37:07;;;;;;;16.10;10.47;;;11.60;99.90;;;9.26;90.15;100432.66;10349788;28;98544;-77
2021/12/31 15:42:12;;;;;;;10.97;7.07;;;11.30;99.90;;;9.10;91.48;100444.78;10383617;28;98427;-77
2021/12/31 15:47:20;;;;;;;11.20;7.13;;;11.20;99.90;;;9.04;92.11;100436.63;10369792;28;98223;-78
2021/12/31 15:52:27;;;;;;;10.10;7.07;;;11.10;99.90;;;9.03;93.09;100437.59;10372608;28;98639;-77
2021/12/31 15:57:30;;;;;;;11.70;7.77;;;11.00;99.90;;;9.07;93.52;100438.97;10379555;28;98212;-77
2021/12/31 16:02:33;;;;;;;13.33;9.03;;;11.10;99.90;;;9.08;94.14;100443.28;10351697;28;97845;-77
2021/12/31 16:07:37;;;;;;;11.57;7.33;;;11.00;99.90;;;9.13;94.81;100445.50;10391001;28;97081;-77
2021/12/31 16:12:40;;;;;;;16.13;8.50;;;11.10;99.90;;;9.11;94.72;100441.16;10383292;27;98452;-77
2021/12/31 16:17:49;;;;;;;13.70;7.17;;;11.10;99.90;;;9.10;94.90;100431.53;10372574;28;98963;-78
2021/12/31 16:22:52;;;;;;;14.53;8.77;;;11.10;99.90;;;8.99;95.08;100442.38;10383581;28;98684;-77
2021/12/31 16:27:56;;;;;;;10.57;6.83;;;11.00;99.90;;;8.97;95.50;100452.28;10380908;28;98435;-77
2021/12/31 16:32:59;;;;;;;10.97;6.80;;;11.00;99.90;;;8.95;95.83;100456.09;10356731;28;98189;-77
2021/12/31 16:38:03;;;;;;;11.53;6.83;;;10.90;99.90;;;8.87;95.71;100456.00;10370157;28;96887;-77
2021/12/31 16:43:08;;;;;;;11.10;7.80;;;10.80;99.90;;;8.81;96.21;100457.44;10371295;28;98253;-77
2021/12/31 16:48:11;;;;;;;11.30;7.13;;;10.80;99.90;;;8.79;96.51;100462.06;10386738;28;97078;-77
2021/12/31 16:53:14;;;;;;;11.60;6.80;;;10.80;99.90;;;8.72;96.60;100456.53;10377135;28;96583;-77
2021/12/31 16:58:18;;;;;;;9.60;6.33;;;10.70;99.90;;;8.66;96.80;100449.19;10377290;27;97095;-77
2021/12/31 17:03:21;;;;;;;9.13;6.53;;;10.60;99.90;;;8.69;97.16;100453.31;10375248;27;96763;-77
2021/12/31 17:08:24;;;;;;;12.27;8.13;;;10.60;99.90;;;8.66;97.27;100445.69;10377554;28;97152;-77
2021/12/31 17:13:27;;;;;;;8.93;5.93;;;10.60;99.90;;;8.67;97.53;100456.13;10369511;28;97267;-78
2021/12/31 17:18:31;;;;;;;10.80;5.20;;;10.60;99.90;;;8.66;97.67;100451.81;10390126;27;96814;-77
2021/12/31 17:23:34;;;;;;;20.00;10.87;;;10.60;99.90;;;8.61;97.21;100454.09;10363393;27;98391;-77
2021/12/31 17:28:37;;;;;;;25.70;15.90;;;10.60;99.90;;;8.46;96.86;100458.22;10369021;28;97946;-77
2021/12/31 17:33:40;;;;;;;18.37;11.87;;;10.50;99.90;;;8.25;96.53;100461.91;10368658;28;97331;-77
2021/12/31 17:38:43;;;;;;;21.73;12.57;;;10.30;99.90;;;8.00;96.39;100457.28;10373293;28;96690;-77
2021/12/31 17:43:46;;;;;;;19.73;11.83;;;10.10;99.90;;;7.75;96.51;100451.66;10357004;27;97315;-77
2021/12/31 17:48:50;;;;;;;21.60;13.63;;;9.90;99.90;;;7.51;96.51;100456.56;10381907;28;96675;-78
2021/12/31 17:53:55;;;;;;;27.77;15.47;;;9.70;99.90;;;7.29;96.53;100457.69;10360691;28;96531;-78
2021/12/31 17:58:59;;;;;;;25.67;13.87;;;9.50;99.90;;;7.10;96.79;100442.69;10369796;28;97762;-77
2021/12/31 18:04:03;;;;;;;23.73;14.40;;;9.30;99.90;;;6.91;97.20;100440.88;10380070;27;96980;-77
2021/12/31 18:09:06;;;;;;;23.37;13.73;;;9.10;99.90;;;6.75;97.38;100439.75;10345807;28;97904;-77
2021/12/31 18:14:09;;;;;;;23.77;14.30;;;8.90;99.90;;;6.58;97.58;100434.16;10367605;27;98056;-77
2021/12/31 18:19:12;;;;;;;21.97;13.90;;;8.70;99.90;;;6.44;98.04;100431.91;10365579;28;97248;-77
2021/12/31 18:24:15;;;;;;;22.30;14.07;;;8.60;99.90;;;6.31;98.29;100429.53;10375870;28;96737;-77
2021/12/31 18:29:21;;;;;;;21.37;13.30;;;8.50;99.90;;;6.17;98.46;100433.34;10369702;28;97044;-77
2021/12/31 18:34:24;;;;;;;19.00;10.50;;;8.30;99.90;;;6.09;98.91;100425.28;10373459;27;96688;-77
2021/12/31 18:39:28;;;;;;;32.93;17.63;;;8.20;99.90;;;6.08;99.50;100431.53;10360937;28;97521;-77
2021/12/31 18:44:31;;;;;;;58.27;26.07;;;8.20;99.90;;;6.10;99.99;100426.94;10377274;28;97989;-76
2021/12/31 18:49:37;;;;;;;68.10;30.17;;;8.20;99.90;;;6.22;100.00;100424.22;10357981;28;96730;-77
2021/12/31 18:54:40;;;;;;;75.30;33.77;;;8.30;99.90;;;6.31;100.00;100416.34;10361321;28;96830;-77
2021/12/31 18:59:43;;;;;;;41.67;20.43;;;8.30;99.90;;;6.37;100.00;100417.59;10362791;28;96676;-77
2021/12/31 19:04:47;;;;;;;40.73;20.80;;;8.40;99.90;;;6.43;100.00;100417.06;10366684;27;97264;-77
2021/12/31 19:09:50;;;;;;;31.87;15.10;;;8.50;99.90;;;6.42;100.00;100410.94;10386155;28;97260;-77
2021/12/31 19:14:53;;;;;;;21.83;11.70;;;8.40;99.90;;;6.38;100.00;100408.72;10378213;27;96858;-77
2021/12/31 19:19:56;;;;;;;19.57;11.87;;;8.40;99.90;;;6.30;100.00;100405.91;10354312;28;97005;-77
2021/12/31 19:24:59;;;;;;;19.87;11.53;;;8.30;99.90;;;6.24;100.00;100403.78;10373071;28;97149;-77
2021/12/31 19:30:04;;;;;;;21.53;11.30;;;8.30;99.90;;;6.16;100.00;100394.75;10358230;28;97945;-77
2021/12/31 19:35:08;;;;;;;21.97;11.63;;;8.20;99.90;;;6.14;100.00;100385.31;10376981;28;97120;-77
2021/12/31 19:40:14;;;;;;;18.70;9.73;;;8.20;99.90;;;6.07;100.00;100400.84;10363728;27;96723;-78
2021/12/31 19:45:17;;;;;;;16.00;7.80;;;8.10;99.90;;;6.03;100.00;100417.06;10367877;28;96693;-78
2021/12/31 19:50:21;;;;;;;18.30;10.10;;;8.10;99.90;;;6.01;100.00;100411.94;10366274;27;98178;-78
2021/12/31 19:55:24;;;;;;;19.20;10.07;;;8.10;99.90;;;6.09;100.00;100420.00;10360758;28;99114;-78
2021/12/31 20:00:28;;;;;;;18.23;8.93;;;8.20;99.90;;;6.09;100.00;100419.19;10355227;28;96846;-77
2021/12/31 20:05:32;;;;;;;20.10;10.70;;;8.10;99.90;;;6.09;100.00;100409.44;10379322;28;97109;-77
2021/12/31 20:10:37;;;;;;;26.23;11.83;;;8.20;99.90;;;6.08;100.00;100406.97;10367971;28;96658;-77
2021/12/31 20:15:40;;;;;;;18.73;9.30;;;8.10;99.90;;;6.08;100.00;100412.22;10390708;28;96986;-77
2021/12/31 20:20:43;;;;;;;14.10;7.13;;;8.10;99.90;;;6.09;100.00;100416.53;10372972;28;97043;-77
2021/12/31 20:25:45;;;;;;;15.43;7.53;;;8.10;99.90;;;6.25;100.00;100413.41;10386710;27;97058;-77
2021/12/31 20:30:49;;;;;;;17.23;9.73;;;8.20;99.90;;;6.38;100.00;100408.72;10370850;28;97133;-78
2021/12/31 20:35:52;;;;;;;14.00;8.83;;;8.30;99.90;;;6.48;100.00;100414.00;10367129;27;97836;-78
2021/12/31 20:40:55;;;;;;;17.77;9.60;;;8.40;99.90;;;6.57;100.00;100395.53;10375399;28;98543;-78
2021/12/31 20:46:00;;;;;;;14.67;8.07;;;8.50;99.90;;;6.66;100.00;100423.78;10379997;28;97072;-77